createdAt,value
2018-09-21T00:01:25.581Z,96509.61
2018-09-21T00:03:59.800Z,96508.56
2018-09-21T00:06:29.076Z,96507.03
2018-09-21T00:08:58.397Z,96504.28
2018-09-21T00:11:27.750Z,96507.58
2018-09-21T00:13:57.212Z,96498.69
2018-09-21T00:16:26.501Z,96495.79
2018-09-21T00:18:55.738Z,96497.55
2018-09-21T00:21:24.904Z,96496.09
2018-09-21T00:23:53.784Z,96491.17
2018-09-21T00:26:22.760Z,96490.73
2018-09-21T00:28:51.631Z,96489.50
2018-09-21T00:31:20.499Z,96490.29
2018-09-21T00:33:49.480Z,96492.73
2018-09-21T00:36:18.455Z,96484.25
2018-09-21T00:38:47.319Z,96485.09
2018-09-21T00:41:16.248Z,96478.48
2018-09-21T00:43:45.119Z,96478.03
2018-09-21T00:46:13.991Z,96481.03
2018-09-21T00:48:43.073Z,96471.05
2018-09-21T00:51:11.964Z,96473.80
2018-09-21T00:53:40.943Z,96464.41
2018-09-21T00:56:09.863Z,96470.69
2018-09-21T00:58:38.731Z,96464.08
2018-09-21T01:01:07.645Z,96469.30
2018-09-21T01:03:36.521Z,96466.69
2018-09-21T01:06:05.416Z,96466.63
2018-09-21T01:08:34.334Z,96466.15
2018-09-21T01:11:03.289Z,96462.56
2018-09-21T01:13:32.245Z,96465.78
2018-09-21T01:16:01.207Z,96465.16
2018-09-21T01:18:30.088Z,96460.56
2018-09-21T01:20:58.953Z,96463.33
2018-09-21T01:23:27.848Z,96456.05
2018-09-21T01:25:56.803Z,96456.34
2018-09-21T01:28:25.785Z,96453.12
2018-09-21T01:31:01.159Z,96453.73
2018-09-21T01:33:30.032Z,96448.93
2018-09-21T01:35:58.925Z,96449.84
2018-09-21T01:38:27.833Z,96449.61
2018-09-21T01:40:56.720Z,96440.00
2018-09-21T01:43:25.624Z,96444.64
2018-09-21T01:45:54.624Z,96436.84
2018-09-21T01:48:23.549Z,96435.31
2018-09-21T01:50:52.412Z,96434.47
2018-09-21T01:53:21.336Z,96433.52
2018-09-21T01:55:50.199Z,96428.09
2018-09-21T01:58:19.246Z,96426.46
2018-09-21T02:00:48.339Z,96425.06
2018-09-21T02:03:17.249Z,96423.21
2018-09-21T02:05:46.139Z,96419.28
2018-09-21T02:08:15.079Z,96416.45
2018-09-21T02:10:43.976Z,96413.03
2018-09-21T02:13:12.835Z,96413.42
2018-09-21T02:15:41.735Z,96409.64
2018-09-21T02:18:10.590Z,96409.42
2018-09-21T02:20:39.439Z,96410.03
2018-09-21T02:23:08.320Z,96410.78
2018-09-21T02:25:37.319Z,96412.39
2018-09-21T02:28:06.204Z,96411.22
2018-09-21T02:30:35.352Z,96405.56
2018-09-21T02:33:04.208Z,96403.12
2018-09-21T02:35:33.096Z,96403.52
2018-09-21T02:38:02.308Z,96395.87
2018-09-21T02:40:31.213Z,96394.72
2018-09-21T02:43:00.105Z,96392.85
2018-09-21T02:45:29.042Z,96391.94
2018-09-21T02:47:57.996Z,96401.08
2018-09-21T02:50:26.925Z,96394.13
2018-09-21T02:52:55.906Z,96390.26
2018-09-21T02:55:24.813Z,96391.11
2018-09-21T02:57:53.709Z,96388.67
2018-09-21T03:00:22.660Z,96383.88
2018-09-21T03:02:51.672Z,96388.41
2018-09-21T03:05:20.535Z,96381.80
2018-09-21T03:07:49.820Z,96375.63
2018-09-21T03:10:19.101Z,96380.59
2018-09-21T03:12:48.416Z,96372.86
2018-09-21T03:15:17.656Z,96371.69
2018-09-21T03:17:46.996Z,96374.64
2018-09-21T03:20:16.313Z,96373.00
2018-09-21T03:22:45.603Z,96372.56
2018-09-21T03:25:14.800Z,96368.50
2018-09-21T03:27:44.211Z,96376.14
2018-09-21T03:30:13.717Z,96360.23
2018-09-21T03:32:42.916Z,96357.92
2018-09-21T03:35:12.225Z,96349.83
2018-09-21T03:37:41.596Z,96351.41
2018-09-21T03:40:10.863Z,96347.81
2018-09-21T03:42:40.381Z,96345.21
2018-09-21T03:45:09.563Z,96346.28
2018-09-21T03:47:38.875Z,96341.41
2018-09-21T03:50:08.449Z,96335.73
2018-09-21T03:52:37.576Z,96341.12
2018-09-21T03:55:07.436Z,96337.00
2018-09-21T03:57:36.702Z,96333.91
2018-09-21T04:00:06.612Z,96334.55
2018-09-21T04:02:35.872Z,96327.86
2018-09-21T04:05:05.805Z,96329.82
2018-09-21T04:07:35.119Z,96326.16
2018-09-21T04:10:04.420Z,96332.77
2018-09-21T04:12:33.738Z,96329.88
2018-09-21T04:15:02.919Z,96328.15
2018-09-21T04:17:32.219Z,96324.69
2018-09-21T04:20:02.109Z,96318.81
2018-09-21T04:22:31.813Z,96323.74
2018-09-21T04:25:01.167Z,96327.68
2018-09-21T04:27:30.372Z,96318.20
2018-09-21T04:29:59.870Z,96320.10
2018-09-21T04:32:28.822Z,96318.63
2018-09-21T04:34:57.860Z,96324.19
2018-09-21T04:37:26.756Z,96310.33
2018-09-21T04:39:55.665Z,96312.75
2018-09-21T04:42:24.540Z,96314.95
2018-09-21T04:44:53.412Z,96313.25
2018-09-21T04:47:22.281Z,96316.07
2018-09-21T04:49:51.529Z,96321.59
2018-09-21T04:52:21.176Z,96313.98
2018-09-21T04:54:50.093Z,96318.19
2018-09-21T04:57:19.263Z,96317.51
2018-09-21T04:59:48.571Z,96315.80
2018-09-21T05:02:18.373Z,96320.70
2018-09-21T05:04:47.855Z,96323.58
2018-09-21T05:07:17.139Z,96323.83
2018-09-21T05:09:46.355Z,96319.48
2018-09-21T05:12:15.572Z,96321.61
2018-09-21T05:14:44.853Z,96315.47
2018-09-21T05:17:15.435Z,96319.81
2018-09-21T05:19:44.499Z,96317.76
2018-09-21T05:22:13.583Z,96317.30
2018-09-21T05:24:42.449Z,96317.73
2018-09-21T05:27:11.329Z,96313.48
2018-09-21T05:29:40.307Z,96315.67
2018-09-21T05:32:09.550Z,96317.38
2018-09-21T05:34:40.226Z,96315.61
2018-09-21T05:37:11.539Z,96315.34
2018-09-21T05:39:40.872Z,96319.17
2018-09-21T05:42:10.190Z,96317.25
2018-09-21T05:44:39.484Z,96316.18
2018-09-21T05:47:08.870Z,96312.80
2018-09-21T05:49:38.726Z,96312.21
2018-09-21T05:52:07.964Z,96318.81
2018-09-21T05:54:37.407Z,96319.47
2018-09-21T05:57:06.298Z,96319.13
2018-09-21T05:59:35.161Z,96315.38
2018-09-21T06:02:04.085Z,96318.55
2018-09-21T06:04:32.944Z,96316.98
2018-09-21T06:07:01.881Z,96318.03
2018-09-21T06:09:30.837Z,96316.32
2018-09-21T06:11:59.787Z,96313.01
2018-09-21T06:14:28.747Z,96307.44
2018-09-21T06:16:57.639Z,96300.67
2018-09-21T06:19:27.251Z,96303.17
2018-09-21T06:21:56.107Z,96302.38
2018-09-21T06:24:25.010Z,96299.53
2018-09-21T06:26:53.879Z,96302.44
2018-09-21T06:29:22.820Z,96301.80
2018-09-21T06:31:51.802Z,96304.32
2018-09-21T06:34:20.764Z,96302.91
2018-09-21T06:36:49.735Z,96306.83
2018-09-21T06:39:18.621Z,96303.56
2018-09-21T06:41:47.573Z,96301.50
2018-09-21T06:44:16.457Z,96298.39
2018-09-21T06:46:45.522Z,96297.72
2018-09-21T06:49:14.475Z,96293.40
2018-09-21T06:51:43.516Z,96289.07
2018-09-21T06:54:12.383Z,96296.86
2018-09-21T06:56:41.298Z,96291.23
2018-09-21T06:59:10.191Z,96291.91
2018-09-21T07:01:39.081Z,96292.08
2018-09-21T07:04:08.414Z,96289.75
2018-09-21T07:06:37.394Z,96297.18
2018-09-21T07:09:10.217Z,96293.16
2018-09-21T07:11:39.153Z,96287.92
2018-09-21T07:14:08.023Z,96290.83
2018-09-21T07:16:36.981Z,96285.88
2018-09-21T07:19:06.088Z,96284.35
2018-09-21T07:21:35.097Z,96284.98
2018-09-21T07:24:03.992Z,96282.78
2018-09-21T07:26:32.871Z,96275.79
2018-09-21T07:29:01.851Z,96284.58
2018-09-21T07:31:30.716Z,96282.81
2018-09-21T07:33:59.686Z,96280.53
2018-09-21T07:36:28.631Z,96279.10
2018-09-21T07:38:57.883Z,96282.33
2018-09-21T07:41:26.828Z,96277.25
2018-09-21T07:43:55.731Z,96275.27
2018-09-21T07:46:24.919Z,96270.56
2018-09-21T07:48:53.871Z,96267.34
2018-09-21T07:51:22.760Z,96270.05
2018-09-21T07:53:51.648Z,96271.66
2018-09-21T07:56:20.653Z,96261.93
2018-09-21T07:58:49.557Z,96263.98
2018-09-21T08:01:18.506Z,96266.32
2018-09-21T08:03:47.448Z,96283.20
2018-09-21T08:06:16.359Z,96273.17
2018-09-21T08:08:45.316Z,96269.62
2018-09-21T08:11:14.684Z,96273.86
2018-09-21T08:13:43.557Z,96270.64
2018-09-21T08:16:12.440Z,96276.74
2018-09-21T08:18:41.345Z,96269.78
2018-09-21T08:21:10.208Z,96269.69
2018-09-21T08:23:39.090Z,96273.51
2018-09-21T08:26:08.052Z,96266.67
2018-09-21T08:28:36.948Z,96272.70
2018-09-21T08:31:06.739Z,96272.30
2018-09-21T08:33:35.689Z,96274.94
2018-09-21T08:36:04.600Z,96267.31
2018-09-21T08:38:33.512Z,96263.22
2018-09-21T08:41:02.595Z,96266.05
2018-09-21T08:43:31.460Z,96267.99
2018-09-21T08:46:00.332Z,96265.02
2018-09-21T08:48:29.190Z,96262.95
2018-09-21T08:50:58.047Z,96264.98
2018-09-21T08:53:26.915Z,96264.41
2018-09-21T08:55:55.772Z,96265.50
2018-09-21T08:58:24.640Z,96263.61
2018-09-21T09:00:53.593Z,96270.49
2018-09-21T09:03:22.580Z,96264.77
2018-09-21T09:05:52.943Z,96272.05
2018-09-21T09:08:23.252Z,96263.74
2018-09-21T09:10:52.257Z,96274.67
2018-09-21T09:13:21.446Z,96273.87
2018-09-21T09:15:51.069Z,96276.38
2018-09-21T09:18:20.239Z,96270.37
2018-09-21T09:20:49.468Z,96269.05
2018-09-21T09:23:18.528Z,96275.39
2018-09-21T09:25:47.377Z,96269.05
2018-09-21T09:28:16.292Z,96269.66
2018-09-21T09:30:45.261Z,96268.80
2018-09-21T09:33:14.231Z,96261.72
2018-09-21T09:35:43.161Z,96268.94
2018-09-21T09:38:12.055Z,96255.88
2018-09-21T09:40:40.934Z,96255.54
2018-09-21T09:43:09.871Z,96248.80
2018-09-21T09:45:38.918Z,96260.89
2018-09-21T09:48:07.982Z,96252.02
2018-09-21T09:50:36.852Z,96232.14
2018-09-21T09:53:06.212Z,96237.44
2018-09-21T09:55:35.105Z,96223.09
2018-09-21T09:58:04.084Z,96225.92
2018-09-21T10:00:38.170Z,96226.30
2018-09-21T10:03:07.186Z,96227.81
2018-09-21T10:05:36.173Z,96220.45
2018-09-21T10:08:05.825Z,96224.79
2018-09-21T10:10:34.685Z,96224.97
2018-09-21T10:13:03.618Z,96233.23
2018-09-21T10:15:32.518Z,96223.34
2018-09-21T10:18:01.459Z,96235.52
2018-09-21T10:20:30.426Z,96220.27
2018-09-21T10:22:59.320Z,96206.24
2018-09-21T10:25:28.875Z,96206.81
2018-09-21T10:27:58.043Z,96207.38
2018-09-21T10:30:27.210Z,96222.13
2018-09-21T10:32:56.097Z,96203.40
2018-09-21T10:35:25.482Z,96189.98
2018-09-21T10:37:54.670Z,96200.80
2018-09-21T10:40:23.815Z,96207.41
2018-09-21T10:42:52.704Z,96192.70
2018-09-21T10:45:21.829Z,96210.78
2018-09-21T10:47:50.960Z,96197.72
2018-09-21T10:50:19.916Z,96190.75
2018-09-21T10:52:48.820Z,96199.00
2018-09-21T10:55:17.717Z,96192.59
2018-09-21T10:57:46.672Z,96192.95
2018-09-21T11:00:15.607Z,96193.52
2018-09-21T11:02:44.534Z,96214.03
2018-09-21T11:05:13.476Z,96183.37
2018-09-21T11:07:42.472Z,96179.20
2018-09-21T11:10:11.426Z,96176.35
2018-09-21T11:12:40.344Z,96179.59
2018-09-21T11:15:09.296Z,96169.95
2018-09-21T11:17:38.181Z,96180.64
2018-09-21T11:20:07.092Z,96166.55
2018-09-21T11:22:36.009Z,96159.89
2018-09-21T11:25:04.960Z,96156.95
2018-09-21T11:27:33.858Z,96166.75
2018-09-21T11:30:02.812Z,96170.54
2018-09-21T11:32:31.723Z,96174.66
2018-09-21T11:35:00.602Z,96171.94
2018-09-21T11:37:30.041Z,96159.68
2018-09-21T11:39:58.964Z,96179.31
2018-09-21T11:42:27.839Z,96155.30
2018-09-21T11:44:56.737Z,96164.57
2018-09-21T11:47:25.709Z,96160.97
2018-09-21T11:49:54.606Z,96163.06
2018-09-21T11:52:23.513Z,96153.30
2018-09-21T11:54:52.428Z,96151.48
2018-09-21T11:57:21.323Z,96152.81
2018-09-21T11:59:50.404Z,96144.87
2018-09-21T12:02:19.352Z,96139.59
2018-09-21T12:04:48.381Z,96144.48
2018-09-21T12:07:17.756Z,96141.97
2018-09-21T12:09:46.649Z,96133.66
2018-09-21T12:12:15.828Z,96142.72
2018-09-21T12:14:44.785Z,96137.98
2018-09-21T12:17:13.716Z,96146.05
2018-09-21T12:19:42.639Z,96148.22
2018-09-21T12:22:11.848Z,96132.52
2018-09-21T12:24:40.833Z,96138.48
2018-09-21T12:27:09.808Z,96132.06
2018-09-21T12:29:38.752Z,96137.87
2018-09-21T12:32:07.679Z,96146.73
2018-09-21T12:34:36.570Z,96146.04
2018-09-21T12:37:06.397Z,96135.70
2018-09-21T12:39:35.296Z,96141.08
2018-09-21T12:42:04.232Z,96144.08
2018-09-21T12:44:33.203Z,96146.09
2018-09-21T12:47:02.054Z,96146.19
2018-09-21T12:49:32.228Z,96151.73
2018-09-21T12:52:01.197Z,96140.89
2018-09-21T12:54:36.883Z,96145.03
2018-09-21T12:57:05.809Z,96141.04
2018-09-21T12:59:34.802Z,96138.97
2018-09-21T13:02:03.747Z,96137.45
2018-09-21T13:04:32.635Z,96133.36
2018-09-21T13:07:01.500Z,96147.31
2018-09-21T13:09:30.864Z,96143.31
2018-09-21T13:11:59.895Z,96129.77
2018-09-21T13:14:29.713Z,96119.45
2018-09-21T13:16:58.572Z,96116.06
2018-09-21T13:19:28.016Z,96102.89
2018-09-21T13:21:56.936Z,96100.59
2018-09-21T13:24:26.105Z,96101.36
2018-09-21T13:26:55.128Z,96107.09
2018-09-21T13:29:23.949Z,96100.84
2018-09-21T13:31:52.866Z,96102.88
2018-09-21T13:34:21.769Z,96103.73
2018-09-21T13:36:50.672Z,96109.11
2018-09-21T13:39:19.583Z,96118.33
2018-09-21T13:41:48.579Z,96116.95
2018-09-21T13:44:17.509Z,96103.01
2018-09-21T13:46:46.829Z,96107.92
2018-09-21T13:49:15.704Z,96116.50
2018-09-21T13:51:44.730Z,96118.62
2018-09-21T13:54:13.651Z,96109.78
2018-09-21T13:56:42.550Z,96118.75
2018-09-21T13:59:11.439Z,96123.56
2018-09-21T14:01:44.617Z,96122.79
2018-09-21T14:04:13.531Z,96120.09
2018-09-21T14:06:45.584Z,96113.08
2018-09-21T14:09:14.476Z,96101.48
2018-09-21T14:11:43.378Z,96110.81
2018-09-21T14:14:16.676Z,96105.89
2018-09-21T14:16:45.667Z,96100.09
2018-09-21T14:19:14.646Z,96100.09
2018-09-21T14:21:43.577Z,96090.64
2018-09-21T14:24:12.436Z,96092.34
2018-09-21T14:26:41.383Z,96098.53
2018-09-21T14:29:10.591Z,96088.70
2018-09-21T14:31:39.691Z,96101.97
2018-09-21T14:34:09.323Z,96084.44
2018-09-21T14:36:38.312Z,96089.34
2018-09-21T14:39:09.820Z,96096.51
2018-09-21T14:41:38.840Z,96085.69
2018-09-21T14:44:08.266Z,96106.84
2018-09-21T14:46:37.587Z,96106.37
2018-09-21T14:49:06.559Z,96092.64
2018-09-21T14:51:35.464Z,96097.84
2018-09-21T14:54:04.516Z,96108.32
2018-09-21T14:56:33.940Z,96111.68
2018-09-21T14:59:03.311Z,96107.89
2018-09-21T15:01:32.591Z,96112.03
2018-09-21T15:04:01.871Z,96103.89
2018-09-21T15:06:30.789Z,96121.91
2018-09-21T15:08:59.688Z,96124.89
2018-09-21T15:11:28.659Z,96123.58
2018-09-21T15:13:57.636Z,96119.34
2018-09-21T15:16:26.550Z,96130.48
2018-09-21T15:18:55.488Z,96131.84
2018-09-21T15:21:24.391Z,96125.49
2018-09-21T15:23:53.348Z,96128.30
2018-09-21T15:26:22.240Z,96135.37
2018-09-21T15:28:51.113Z,96131.08
2018-09-21T15:31:20.157Z,96112.42
2018-09-21T15:33:49.455Z,96124.06
2018-09-21T15:36:18.487Z,96124.78
2018-09-21T15:38:47.480Z,96130.59
2018-09-21T15:41:16.812Z,96126.78
2018-09-21T15:43:46.661Z,96146.28
2018-09-21T15:46:17.428Z,96134.03
2018-09-21T15:48:47.365Z,96131.67
2018-09-21T15:51:16.853Z,96138.85
2018-09-21T15:53:46.936Z,96135.23
2018-09-21T15:56:16.235Z,96138.05
2018-09-21T15:58:45.551Z,96156.80
2018-09-21T16:01:14.846Z,96161.84
2018-09-21T16:03:43.825Z,96153.45
2018-09-21T16:06:12.799Z,96170.13
2018-09-21T16:08:41.790Z,96199.68
2018-09-21T16:11:10.712Z,96213.76
2018-09-21T16:13:40.100Z,96256.59
2018-09-21T16:16:09.245Z,96268.06
2018-09-21T16:18:38.214Z,96305.97
2018-09-21T16:21:07.705Z,96344.06
2018-09-21T16:23:36.823Z,96398.88
2018-09-21T16:26:06.083Z,96419.72
2018-09-21T16:28:35.324Z,96429.05
2018-09-21T16:31:04.780Z,96433.86
2018-09-21T16:33:34.104Z,96450.86
2018-09-21T16:36:03.333Z,96441.82
2018-09-21T16:38:32.265Z,96442.39
2018-09-21T16:41:01.224Z,96453.25
2018-09-21T16:43:30.417Z,96472.00
2018-09-21T16:45:59.356Z,96466.99
2018-09-21T16:48:28.332Z,96461.20
2018-09-21T16:50:57.323Z,96459.37
2018-09-21T16:53:26.283Z,96468.16
2018-09-21T16:55:55.593Z,96472.25
2018-09-21T16:58:24.683Z,96497.04
2018-09-21T17:00:54.155Z,96480.03
2018-09-21T17:03:23.340Z,96514.52
2018-09-21T17:05:53.101Z,96529.82
2018-09-21T17:08:22.312Z,96545.03
2018-09-21T17:10:51.503Z,96529.72
2018-09-21T17:13:20.522Z,96521.64
2018-09-21T17:15:49.458Z,96557.77
2018-09-21T17:18:18.685Z,96566.80
2018-09-21T17:20:47.689Z,96575.48
2018-09-21T17:23:17.047Z,96603.52
2018-09-21T17:25:46.397Z,96602.36
2018-09-21T17:28:16.247Z,96585.94
2018-09-21T17:30:45.661Z,96611.88
2018-09-21T17:33:14.765Z,96640.05
2018-09-21T17:35:44.108Z,96645.52
2018-09-21T17:38:13.460Z,96656.16
2018-09-21T17:40:42.871Z,96670.34
2018-09-21T17:43:12.368Z,96672.20
2018-09-21T17:45:41.752Z,96689.06
2018-09-21T17:48:11.061Z,96686.80
2018-09-21T17:50:40.263Z,96688.89
2018-09-21T17:53:09.512Z,96693.33
2018-09-21T17:55:38.875Z,96703.66
2018-09-21T17:58:08.104Z,96699.97
2018-09-21T18:00:37.399Z,96699.56
2018-09-21T18:03:07.094Z,96706.82
2018-09-21T18:05:36.395Z,96714.20
2018-09-21T18:08:05.760Z,96727.23
2018-09-21T18:10:35.016Z,96724.66
2018-09-21T18:13:04.456Z,96737.83
2018-09-21T18:15:33.712Z,96738.81
2018-09-21T18:18:03.120Z,96751.54
2018-09-21T18:20:32.324Z,96754.45
2018-09-21T18:23:01.718Z,96748.46
2018-09-21T18:25:31.078Z,96742.92
2018-09-21T18:27:59.956Z,96746.69
2018-09-21T18:30:29.084Z,96753.52
2018-09-21T18:32:58.256Z,96743.25
2018-09-21T18:35:33.503Z,96745.09
2018-09-21T18:38:02.406Z,96745.64
2018-09-21T18:40:31.365Z,96762.25
2018-09-21T18:43:00.259Z,96767.41
2018-09-21T18:45:29.268Z,96774.77
2018-09-21T18:47:58.232Z,96783.21
2018-09-21T18:50:27.182Z,96807.02
2018-09-21T18:52:56.428Z,96809.45
2018-09-21T18:55:25.363Z,96809.98
2018-09-21T18:57:54.357Z,96815.86
2018-09-21T19:00:23.304Z,96808.70
2018-09-21T19:02:52.251Z,96800.72
2018-09-21T19:05:21.281Z,96814.91
2018-09-21T19:07:50.189Z,96814.11
2018-09-21T19:10:19.067Z,96813.57
2018-09-21T19:12:47.989Z,96809.94
2018-09-21T19:15:16.863Z,96817.93
2018-09-21T19:17:45.768Z,96811.23
2018-09-21T19:20:14.667Z,96813.44
2018-09-21T19:22:43.691Z,96817.81
2018-09-21T19:25:12.586Z,96825.56
2018-09-21T19:27:41.584Z,96834.36
2018-09-21T19:30:10.521Z,96833.38
2018-09-21T19:32:39.428Z,96841.86
2018-09-21T19:35:08.377Z,96845.54
2018-09-21T19:37:37.308Z,96854.47
2018-09-21T19:40:06.329Z,96862.71
2018-09-21T19:42:35.253Z,96866.15
2018-09-21T19:45:04.296Z,96868.73
2018-09-21T19:47:33.135Z,96868.48
2018-09-21T19:50:02.024Z,96878.50
2018-09-21T19:52:30.888Z,96883.37
2018-09-21T19:55:00.005Z,96882.33
2018-09-21T19:57:28.860Z,96890.33
2018-09-21T19:59:57.810Z,96885.95
2018-09-21T20:02:26.781Z,96883.43
2018-09-21T20:04:55.822Z,96889.38
2018-09-21T20:07:24.703Z,96887.09
2018-09-21T20:09:53.604Z,96890.13
2018-09-21T20:12:22.552Z,96880.11
2018-09-21T20:14:51.429Z,96884.21
2018-09-21T20:17:20.290Z,96884.71
2018-09-21T20:19:49.194Z,96884.42
2018-09-21T20:22:18.268Z,96891.97
2018-09-21T20:24:47.143Z,96894.75
2018-09-21T20:27:16.032Z,96910.23
2018-09-21T20:29:44.908Z,96909.45
2018-09-21T20:32:18.896Z,96912.58
2018-09-21T20:34:47.835Z,96914.11
2018-09-21T20:37:16.801Z,96918.98
2018-09-21T20:39:45.696Z,96928.52
2018-09-21T20:42:14.588Z,96929.56
2018-09-21T20:44:43.542Z,96946.10
2018-09-21T20:47:12.401Z,96944.31
2018-09-21T20:49:41.376Z,96955.45
2018-09-21T20:52:10.275Z,96960.35
2018-09-21T20:54:39.151Z,96962.34
2018-09-21T20:57:08.066Z,96957.99
2018-09-21T20:59:37.149Z,96963.66
2018-09-21T21:02:06.087Z,96964.91
2018-09-21T21:04:35.043Z,96967.56
2018-09-21T21:07:04.074Z,96962.59
2018-09-21T21:09:33.007Z,96977.81
2018-09-21T21:12:01.911Z,96973.45
2018-09-21T21:14:31.069Z,96985.27
2018-09-21T21:17:00.035Z,96992.52
2018-09-21T21:19:28.988Z,96987.56
2018-09-21T21:21:57.927Z,96990.92
2018-09-21T21:24:26.781Z,96989.84
2018-09-21T21:26:55.782Z,96986.64
2018-09-21T21:29:24.856Z,96991.68
2018-09-21T21:31:54.387Z,96983.73
2018-09-21T21:34:23.411Z,96994.36
2018-09-21T21:36:52.678Z,96990.73
2018-09-21T21:39:21.756Z,97006.73
2018-09-21T21:41:51.925Z,97007.48
2018-09-21T21:44:21.198Z,97009.08
2018-09-21T21:46:50.347Z,97020.41
2018-09-21T21:49:19.441Z,97033.83
2018-09-21T21:51:48.348Z,97042.42
2018-09-21T21:54:17.528Z,97023.79
2018-09-21T21:56:47.971Z,97030.45
2018-09-21T21:59:17.239Z,97031.30
2018-09-21T22:01:47.640Z,97040.12
2018-09-21T22:04:17.937Z,97036.76
2018-09-21T22:06:48.293Z,97032.38
2018-09-21T22:09:17.357Z,97046.26
2018-09-21T22:11:51.324Z,97049.09
2018-09-21T22:14:23.891Z,97055.84
2018-09-21T22:16:53.116Z,97055.84
2018-09-21T22:19:22.233Z,97049.63
2018-09-21T22:21:51.145Z,97040.03
2018-09-21T22:24:20.108Z,97031.50
2018-09-21T22:26:49.049Z,97057.59
2018-09-21T22:29:17.964Z,97065.39
2018-09-21T22:31:47.056Z,97073.17
2018-09-21T22:34:15.958Z,97076.23
2018-09-21T22:36:46.637Z,97071.05
2018-09-21T22:39:15.636Z,97070.05
2018-09-21T22:42:19.723Z,97071.05
2018-09-21T22:44:49.553Z,97088.89
2018-09-21T22:47:19.002Z,97090.18
2018-09-21T22:49:48.340Z,97088.11
2018-09-21T22:52:17.631Z,97088.14
2018-09-21T22:54:47.151Z,97088.10
2018-09-21T22:57:16.540Z,97095.10
2018-09-21T22:59:45.837Z,97097.76
2018-09-21T23:02:15.144Z,97100.81
2018-09-21T23:04:44.387Z,97104.94
2018-09-21T23:07:13.698Z,97104.98
2018-09-21T23:09:43.020Z,97109.36
2018-09-21T23:12:12.999Z,97107.81
2018-09-21T23:14:42.333Z,97110.67
2018-09-21T23:17:11.652Z,97118.68
2018-09-21T23:19:41.025Z,97122.85
2018-09-21T23:22:10.369Z,97117.45
2018-09-21T23:24:39.662Z,97132.42
2018-09-21T23:27:08.647Z,97136.06
2018-09-21T23:29:37.532Z,97125.45
2018-09-21T23:32:06.447Z,97121.34
2018-09-21T23:34:35.608Z,97133.23
2018-09-21T23:37:04.545Z,97130.91
2018-09-21T23:39:33.412Z,97130.38
2018-09-21T23:42:02.327Z,97135.03
2018-09-21T23:44:31.192Z,97138.88
2018-09-21T23:47:00.060Z,97147.66
2018-09-21T23:49:28.923Z,97142.77
2018-09-21T23:51:57.820Z,97138.12
2018-09-21T23:54:26.771Z,97145.09
2018-09-21T23:56:55.659Z,97146.38
2018-09-21T23:59:24.563Z,97146.38
